createdAt,value
2022-08-09T00:01:52.832Z,4.05
2022-08-09T00:05:03.698Z,3.95
2022-08-09T00:08:32.576Z,4.78
2022-08-09T00:12:02.839Z,4.20
2022-08-09T00:15:00.442Z,3.95
2022-08-09T00:18:11.114Z,4.43
2022-08-09T00:21:14.317Z,4.03
2022-08-09T00:24:17.081Z,4.63
2022-08-09T00:27:22.531Z,4.05
2022-08-09T00:30:27.064Z,4.25
2022-08-09T00:33:48.873Z,4.85
2022-08-09T00:36:52.382Z,4.07
2022-08-09T00:40:13.159Z,4.03
2022-08-09T00:44:26.866Z,4.63
2022-08-09T00:46:56.508Z,4.60
2022-08-09T00:50:06.704Z,4.40
2022-08-09T00:53:17.943Z,4.97
2022-08-09T00:56:27.004Z,3.90
2022-08-09T00:59:29.517Z,4.05
2022-08-09T01:02:49.874Z,4.22
2022-08-09T01:05:58.379Z,4.18
2022-08-09T01:09:18.365Z,4.68
2022-08-09T01:12:30.387Z,3.95
2022-08-09T01:19:04.379Z,3.95
2022-08-09T01:22:24.518Z,4.25
2022-08-09T01:25:48.803Z,4.57
2022-08-09T01:28:57.328Z,3.75
2022-08-09T01:32:30.715Z,4.28
2022-08-09T01:35:38.564Z,3.88
2022-08-09T01:38:46.322Z,4.80
2022-08-09T01:41:53.425Z,4.50
2022-08-09T01:45:01.508Z,4.40
2022-08-09T01:48:05.969Z,4.93
2022-08-09T01:51:10.546Z,4.43
2022-08-09T01:54:15.377Z,4.55
2022-08-09T01:57:20.521Z,4.80
2022-08-09T02:00:35.663Z,5.00
2022-08-09T02:03:42.932Z,5.53
2022-08-09T02:07:04.258Z,5.57
2022-08-09T02:13:15.347Z,5.60
2022-08-09T02:16:19.609Z,5.65
2022-08-09T02:19:39.192Z,5.82
2022-08-09T02:22:52.382Z,5.60
2022-08-09T02:25:59.306Z,5.20
2022-08-09T02:29:09.797Z,5.72
2022-08-09T02:32:17.384Z,5.47
2022-08-09T02:36:01.356Z,6.13
2022-08-09T02:38:51.968Z,6.03
2022-08-09T02:41:59.650Z,6.38
2022-08-09T02:45:08.235Z,6.25
2022-08-09T02:48:30.686Z,5.85
2022-08-09T02:51:40.542Z,6.55
2022-08-09T02:54:54.144Z,6.15
2022-08-09T02:57:59.971Z,6.32
2022-08-09T03:01:29.496Z,5.70
2022-08-09T03:04:50.822Z,6.82
2022-08-09T03:07:55.609Z,6.93
2022-08-09T03:11:00.231Z,6.35
2022-08-09T03:14:03.477Z,6.00
2022-08-09T03:17:07.371Z,5.95
2022-08-09T03:20:21.343Z,6.90
2022-08-09T03:23:26.098Z,7.18
2022-08-09T03:26:31.844Z,6.90
2022-08-09T03:29:43.249Z,7.70
2022-08-09T03:33:00.261Z,7.70
2022-08-09T03:36:12.975Z,7.57
2022-08-09T03:39:16.845Z,7.10
2022-08-09T03:42:19.430Z,7.47
2022-08-09T03:46:04.813Z,6.95
2022-08-09T03:48:55.929Z,7.00
2022-08-09T03:52:03.673Z,7.30
2022-08-09T03:55:10.567Z,7.63
2022-08-09T03:58:21.256Z,7.43
2022-08-09T04:01:25.091Z,7.03
2022-08-09T04:04:38.842Z,7.65
2022-08-09T04:07:52.934Z,7.05
2022-08-09T04:11:01.632Z,7.45
2022-08-09T04:14:53.033Z,7.90
2022-08-09T04:17:27.111Z,7.10
2022-08-09T04:20:32.675Z,7.32
2022-08-09T04:23:36.586Z,7.53
2022-08-09T04:26:39.060Z,8.50
2022-08-09T04:29:50.004Z,8.50
2022-08-09T04:32:54.512Z,8.18
2022-08-09T04:35:57.073Z,7.88
2022-08-09T04:39:03.980Z,7.70
2022-08-09T04:42:09.340Z,8.48
2022-08-09T04:45:12.834Z,8.40
2022-08-09T04:48:15.594Z,8.15
2022-08-09T04:51:18.087Z,9.02
2022-08-09T04:54:24.060Z,8.07
2022-08-09T04:57:27.083Z,7.80
2022-08-09T05:00:49.586Z,7.07
2022-08-09T05:03:56.787Z,8.07
2022-08-09T05:07:01.180Z,7.50
2022-08-09T05:10:05.634Z,8.25
2022-08-09T05:13:08.275Z,7.38
2022-08-09T05:16:14.917Z,7.43
2022-08-09T05:19:24.495Z,7.28
2022-08-09T05:22:35.679Z,7.47
2022-08-09T05:25:40.552Z,7.80
2022-08-09T05:28:44.203Z,7.68
2022-08-09T05:31:56.152Z,7.65
2022-08-09T05:35:00.233Z,7.03
2022-08-09T05:38:02.711Z,6.60
2022-08-09T05:41:06.891Z,6.95
2022-08-09T05:44:16.105Z,6.75
2022-08-09T05:47:27.137Z,6.63
2022-08-09T05:50:36.052Z,5.80
2022-08-09T05:53:56.419Z,5.82
2022-08-09T05:57:01.520Z,5.78
2022-08-09T06:00:10.063Z,5.93
2022-08-09T06:03:19.617Z,6.18
2022-08-09T06:06:22.799Z,6.18
2022-08-09T06:10:02.488Z,5.90
2022-08-09T06:12:50.494Z,5.85
2022-08-09T06:16:06.237Z,6.38
2022-08-09T06:19:08.703Z,6.13
2022-08-09T06:22:15.266Z,5.20
2022-08-09T06:25:18.141Z,4.63
2022-08-09T06:28:31.877Z,4.97
2022-08-09T06:31:40.285Z,4.70
2022-08-09T06:34:57.346Z,5.40
2022-08-09T06:38:05.819Z,3.65
2022-08-09T06:41:18.723Z,4.30
2022-08-09T06:44:23.121Z,4.55
2022-08-09T06:47:39.424Z,4.90
2022-08-09T06:50:42.850Z,3.45
2022-08-09T06:53:45.874Z,3.88
2022-08-09T06:56:52.436Z,3.08
2022-08-09T07:00:49.542Z,3.45
2022-08-09T07:03:18.787Z,3.45
2022-08-09T07:06:21.326Z,2.83
2022-08-09T07:09:57.181Z,2.83
2022-08-09T07:12:57.407Z,3.10
2022-08-09T07:16:41.867Z,3.13
2022-08-09T07:19:24.383Z,3.00
2022-08-09T07:22:42.242Z,2.90
2022-08-09T07:25:52.515Z,2.78
2022-08-09T07:29:12.186Z,2.42
2022-08-09T07:35:19.865Z,2.63
2022-08-09T07:38:23.420Z,2.67
2022-08-09T07:41:27.044Z,2.13
2022-08-09T07:44:51.788Z,2.33
2022-08-09T07:48:01.378Z,2.27
2022-08-09T07:52:03.793Z,2.10
2022-08-09T07:54:31.592Z,2.65
2022-08-09T07:57:36.136Z,2.20
2022-08-09T08:00:56.036Z,2.90
2022-08-09T08:04:03.342Z,2.10
2022-08-09T08:07:27.116Z,2.38
2022-08-09T08:10:28.765Z,2.05
2022-08-09T08:13:42.656Z,2.05
2022-08-09T08:17:07.773Z,2.28
2022-08-09T08:20:13.727Z,2.58
2022-08-09T08:23:17.799Z,2.85
2022-08-09T08:26:26.402Z,3.03
2022-08-09T08:29:48.594Z,2.35
2022-08-09T08:32:54.257Z,2.47
2022-08-09T08:36:03.560Z,2.15
2022-08-09T08:39:08.601Z,2.63
2022-08-09T08:42:13.446Z,2.10
2022-08-09T08:45:18.618Z,2.35
2022-08-09T08:48:51.526Z,2.05
2022-08-09T08:52:00.307Z,2.67
2022-08-09T08:55:05.879Z,1.90
2022-08-09T08:58:10.776Z,2.30
2022-08-09T09:01:24.585Z,2.83
2022-08-09T09:04:31.363Z,2.55
2022-08-09T09:07:44.950Z,2.30
2022-08-09T09:10:48.248Z,2.50
2022-08-09T09:13:58.458Z,2.47
2022-08-09T09:17:02.742Z,2.08
2022-08-09T09:20:09.650Z,2.40
2022-08-09T09:23:21.499Z,2.00
2022-08-09T09:26:43.581Z,2.50
2022-08-09T09:33:16.668Z,1.92
2022-08-09T09:36:22.002Z,1.88
2022-08-09T09:39:50.428Z,2.33
2022-08-09T09:42:56.849Z,1.92
2022-08-09T09:49:49.922Z,2.15
2022-08-09T09:52:53.397Z,1.58
2022-08-09T09:56:04.178Z,2.08
2022-08-09T09:59:09.470Z,1.90
2022-08-09T10:02:12.434Z,1.83
2022-08-09T10:05:15.020Z,1.98
2022-08-09T10:08:29.311Z,1.25
2022-08-09T10:11:59.862Z,1.70
2022-08-09T10:15:07.535Z,1.77
2022-08-09T10:18:19.973Z,1.20
2022-08-09T10:21:24.968Z,1.80
2022-08-09T10:24:35.834Z,1.63
2022-08-09T10:27:45.409Z,1.98
2022-08-09T10:34:33.571Z,1.60
2022-08-09T10:37:39.033Z,1.52
2022-08-09T10:40:44.751Z,1.40
2022-08-09T10:48:19.229Z,1.02
2022-08-09T10:51:06.641Z,1.40
2022-08-09T10:54:12.467Z,1.60
2022-08-09T10:57:15.743Z,1.77
2022-08-09T11:00:41.812Z,1.38
2022-08-09T11:04:31.369Z,1.65
2022-08-09T11:07:57.749Z,1.73
2022-08-09T11:11:00.550Z,1.67
2022-08-09T11:14:31.842Z,1.40
2022-08-09T11:18:03.766Z,1.25
2022-08-09T11:21:06.641Z,1.30
2022-08-09T11:24:10.558Z,1.50
2022-08-09T11:28:04.430Z,1.55
2022-08-09T11:30:52.780Z,1.50
2022-08-09T11:34:04.225Z,1.50
2022-08-09T11:37:18.400Z,1.23
2022-08-09T11:40:29.901Z,1.50
2022-08-09T11:43:41.457Z,1.67
2022-08-09T11:46:54.918Z,1.25
2022-08-09T11:50:55.534Z,1.70
2022-08-09T11:53:58.533Z,1.85
2022-08-09T11:56:51.273Z,1.60
2022-08-09T11:59:53.856Z,1.40
2022-08-09T12:02:57.893Z,1.30
2022-08-09T12:06:10.346Z,1.48
2022-08-09T12:09:19.230Z,1.42
2022-08-09T12:12:29.230Z,2.00
2022-08-09T12:18:55.771Z,1.93
2022-08-09T12:22:03.857Z,1.88
2022-08-09T12:25:15.221Z,1.83
2022-08-09T12:29:15.031Z,1.92
2022-08-09T12:32:01.763Z,2.42
2022-08-09T12:35:12.597Z,1.75
2022-08-09T12:38:37.320Z,2.13
2022-08-09T12:41:41.335Z,1.90
2022-08-09T12:44:52.258Z,1.60
2022-08-09T12:51:00.515Z,1.73
2022-08-09T12:54:08.684Z,1.73
2022-08-09T12:57:11.195Z,1.50
2022-08-09T13:00:17.588Z,1.48
2022-08-09T13:03:58.390Z,1.90
2022-08-09T13:06:51.451Z,1.45
2022-08-09T13:10:04.629Z,1.55
2022-08-09T13:13:10.104Z,1.80
2022-08-09T13:16:17.512Z,1.60
2022-08-09T13:20:07.801Z,1.92
2022-08-09T13:23:05.449Z,1.98
2022-08-09T13:26:38.549Z,2.10
2022-08-09T13:30:03.544Z,1.52
2022-08-09T13:33:07.015Z,2.10
2022-08-09T13:36:39.457Z,1.90
2022-08-09T13:41:45.664Z,1.60
2022-08-09T13:43:03.446Z,1.38
2022-08-09T13:47:17.928Z,1.67
2022-08-09T13:49:37.445Z,1.70
2022-08-09T13:52:41.817Z,1.70
2022-08-09T13:55:44.880Z,2.03
2022-08-09T13:58:53.212Z,1.77
2022-08-09T14:02:02.228Z,1.70
2022-08-09T14:05:05.466Z,1.67
2022-08-09T14:08:08.055Z,1.13
2022-08-09T14:11:16.200Z,1.38
2022-08-09T14:14:26.052Z,1.30
2022-08-09T14:20:52.821Z,1.60
2022-08-09T14:23:57.310Z,1.23
2022-08-09T14:27:01.250Z,1.42
2022-08-09T14:30:36.360Z,1.55
2022-08-09T14:33:29.495Z,1.33
2022-08-09T14:36:39.853Z,1.70
2022-08-09T14:39:48.368Z,1.60
2022-08-09T14:42:51.355Z,1.58
2022-08-09T14:47:00.905Z,1.50
2022-08-09T14:49:18.448Z,1.83
2022-08-09T14:52:26.122Z,1.67
2022-08-09T14:55:32.224Z,1.90
2022-08-09T14:58:37.841Z,1.20
2022-08-09T15:04:51.930Z,1.40
2022-08-09T15:07:56.887Z,1.40
2022-08-09T15:11:04.854Z,1.25
2022-08-09T15:14:13.248Z,1.30
2022-08-09T15:17:17.944Z,1.30
2022-08-09T15:21:55.133Z,1.42
2022-08-09T15:24:02.788Z,1.38
2022-08-09T15:27:06.643Z,1.35
2022-08-09T15:30:58.948Z,1.50
2022-08-09T15:34:15.394Z,1.30
2022-08-09T15:37:01.151Z,1.60
2022-08-09T15:40:11.663Z,1.60
2022-08-09T15:43:14.758Z,1.15
2022-08-09T15:46:33.666Z,1.60
2022-08-09T15:49:38.720Z,1.55
2022-08-09T15:53:05.995Z,1.60
2022-08-09T15:56:21.491Z,1.50
2022-08-09T15:59:37.100Z,1.20
2022-08-09T16:02:40.182Z,1.67
2022-08-09T16:05:53.118Z,1.80
2022-08-09T16:09:00.879Z,1.17
2022-08-09T16:12:04.188Z,1.65
2022-08-09T16:16:10.399Z,1.30
2022-08-09T16:18:31.268Z,1.40
2022-08-09T16:21:36.752Z,1.20
2022-08-09T16:24:39.292Z,1.40
2022-08-09T16:27:51.393Z,1.48
2022-08-09T16:30:59.216Z,1.30
2022-08-09T16:34:02.495Z,1.13
2022-08-09T16:37:08.283Z,1.27
2022-08-09T16:40:29.463Z,1.58
2022-08-09T16:43:40.458Z,1.65
2022-08-09T16:46:55.547Z,1.52
2022-08-09T16:50:31.321Z,1.20
2022-08-09T16:53:34.258Z,1.27
2022-08-09T16:56:37.239Z,1.65
2022-08-09T16:59:57.543Z,1.20
2022-08-09T17:03:00.668Z,1.10
2022-08-09T17:06:29.254Z,1.13
2022-08-09T17:09:45.003Z,1.38
2022-08-09T17:12:49.579Z,1.25
2022-08-09T17:15:59.916Z,1.15
2022-08-09T17:19:05.255Z,0.70
2022-08-09T17:22:08.125Z,1.38
2022-08-09T17:25:13.494Z,1.20
2022-08-09T17:28:16.153Z,1.67
2022-08-09T17:31:20.693Z,1.02
2022-08-09T17:35:04.379Z,1.30
2022-08-09T17:38:11.634Z,1.30
2022-08-09T17:41:11.908Z,1.38
2022-08-09T17:44:38.595Z,0.98
2022-08-09T17:47:49.509Z,1.55
2022-08-09T17:51:08.705Z,1.52
2022-08-09T17:54:12.417Z,0.80
2022-08-09T17:58:02.516Z,1.40
2022-08-09T18:00:46.574Z,1.30
2022-08-09T18:03:50.741Z,1.48
2022-08-09T18:06:54.870Z,1.10
2022-08-09T18:10:04.373Z,1.48
2022-08-09T18:13:53.677Z,1.20
2022-08-09T18:16:31.989Z,1.30
2022-08-09T18:20:57.955Z,1.38
2022-08-09T18:23:04.629Z,1.10
2022-08-09T18:26:08.524Z,1.40
2022-08-09T18:30:39.252Z,1.27
2022-08-09T18:32:35.568Z,1.30
2022-08-09T18:35:59.556Z,1.48
2022-08-09T18:39:03.283Z,1.40
2022-08-09T18:42:08.121Z,0.95
2022-08-09T18:45:21.563Z,1.67
2022-08-09T18:48:35.931Z,1.33
2022-08-09T18:51:57.832Z,1.38
2022-08-09T18:55:00.839Z,1.50
2022-08-09T18:58:03.345Z,1.52
2022-08-09T19:01:07.645Z,1.35
2022-08-09T19:04:10.534Z,1.77
2022-08-09T19:07:13.175Z,1.70
2022-08-09T19:10:19.224Z,1.50
2022-08-09T19:13:49.546Z,1.30
2022-08-09T19:16:50.226Z,1.40
2022-08-09T19:20:00.725Z,1.52
2022-08-09T19:26:09.244Z,1.40
2022-08-09T19:29:18.110Z,1.70
2022-08-09T19:32:26.629Z,1.75
2022-08-09T19:35:57.388Z,1.45
2022-08-09T19:38:54.941Z,1.90
2022-08-09T19:41:58.448Z,1.77
2022-08-09T19:45:01.164Z,1.60
2022-08-09T19:48:05.610Z,1.80
2022-08-09T19:51:11.950Z,2.08
2022-08-09T19:54:16.567Z,1.40
2022-08-09T19:57:19.067Z,2.13
2022-08-09T20:00:28.496Z,1.73
2022-08-09T20:04:16.766Z,1.73
2022-08-09T20:06:54.897Z,1.50
2022-08-09T20:09:57.569Z,2.20
2022-08-09T20:13:00.234Z,1.73
2022-08-09T20:16:34.004Z,2.15
2022-08-09T20:19:49.582Z,2.65
2022-08-09T20:22:49.395Z,2.10
2022-08-09T20:25:53.455Z,1.73
2022-08-09T20:28:56.386Z,1.77
2022-08-09T20:32:29.262Z,2.20
2022-08-09T20:35:25.256Z,2.00
2022-08-09T20:38:49.191Z,2.00
2022-08-09T20:41:50.277Z,2.03
2022-08-09T20:45:21.423Z,1.73
2022-08-09T20:48:20.943Z,1.98
2022-08-09T20:51:26.627Z,2.55
2022-08-09T20:54:31.199Z,2.00
2022-08-09T20:57:34.532Z,5.57
2022-08-09T21:01:02.256Z,4.07
2022-08-09T21:05:53.877Z,2.28
2022-08-09T21:07:44.891Z,2.13
2022-08-09T21:10:53.359Z,2.10
2022-08-09T21:13:59.535Z,2.40
2022-08-09T21:18:22.018Z,1.98
2022-08-09T21:20:26.390Z,2.95
2022-08-09T21:23:47.989Z,2.33
2022-08-09T21:26:53.652Z,2.22
2022-08-09T21:29:57.339Z,3.15
2022-08-09T21:32:59.812Z,2.50
2022-08-09T21:36:02.455Z,4.65
2022-08-09T21:39:08.329Z,2.60
2022-08-09T21:42:11.369Z,2.40
2022-08-09T21:45:17.336Z,2.22
2022-08-09T21:48:20.047Z,2.88
2022-08-09T21:51:24.565Z,2.78
2022-08-09T21:54:40.363Z,2.40
2022-08-09T21:57:59.097Z,2.47
2022-08-09T22:01:02.742Z,2.30
2022-08-09T22:04:05.434Z,2.35
2022-08-09T22:07:08.426Z,2.13
2022-08-09T22:10:13.866Z,2.17
2022-08-09T22:13:33.967Z,2.22
2022-08-09T22:19:59.045Z,2.97
2022-08-09T22:23:04.944Z,2.72
2022-08-09T22:26:34.417Z,2.72
2022-08-09T22:29:48.494Z,2.70
2022-08-09T22:32:52.845Z,3.15
2022-08-09T22:35:59.867Z,2.70
2022-08-09T22:39:05.561Z,2.97
2022-08-09T22:42:21.292Z,3.10
2022-08-09T22:48:16.874Z,3.42
2022-08-09T22:48:50.381Z,3.30
2022-08-09T22:51:56.891Z,3.30
2022-08-09T22:55:00.072Z,3.95
2022-08-09T22:58:04.918Z,3.13
2022-08-09T23:01:07.753Z,3.58
2022-08-09T23:04:10.306Z,3.88
2022-08-09T23:07:31.124Z,3.92
2022-08-09T23:10:52.955Z,4.68
2022-08-09T23:13:56.765Z,4.50
2022-08-09T23:16:59.397Z,3.95
2022-08-09T23:20:06.700Z,3.65
2022-08-09T23:23:10.081Z,3.75
2022-08-09T23:26:12.577Z,3.78
2022-08-09T23:29:16.393Z,3.90
2022-08-09T23:32:18.874Z,3.97
2022-08-09T23:35:21.377Z,3.72
2022-08-09T23:38:23.911Z,3.58
2022-08-09T23:41:28.852Z,3.63
2022-08-09T23:44:33.450Z,4.03
2022-08-09T23:47:36.020Z,3.95
2022-08-09T23:50:38.561Z,3.67
2022-08-09T23:53:41.048Z,3.63
2022-08-09T23:56:54.506Z,4.28
